Time;durP1;ratioP1;P1;durP2;ratioP2;P2;SDS_P1;SDS_P2;PMS_P1;PMS_P2;Temp;Humidity;BMP_temperature;BMP_pressure;BME280_temperature;BME280_humidity;BME280_pressure;Samples;Min_cycle;Max_cycle;Signal;HPM_P1;HPM_P2
2021/06/12 00:00:40;;;;;;;11.50;4.43;;;18.00;69.60;;;;;;6155588;23;20035;-73
2021/06/12 00:03:07;;;;;;;9.07;4.00;;;18.00;69.40;;;;;;6155310;23;20026;-73
2021/06/12 00:05:36;;;;;;;8.13;3.60;;;18.00;69.60;;;;;;6155497;23;20494;-73
2021/06/12 00:08:02;;;;;;;7.45;4.07;;;18.00;68.90;;;;;;6130773;23;20065;-73
2021/06/12 00:10:35;;;;;;;9.45;4.60;;;18.00;69.50;;;;;;6155467;23;20006;-73
2021/06/12 00:13:03;;;;;;;8.27;4.20;;;17.90;69.40;;;;;;6155038;23;20324;-73
2021/06/12 00:15:30;;;;;;;8.48;4.28;;;17.80;69.20;;;;;;6155146;23;20473;-74
2021/06/12 00:17:57;;;;;;;8.25;4.03;;;17.80;69.40;;;;;;6155482;23;20021;-73
2021/06/12 00:20:44;;;;;;;10.68;4.30;;;17.70;69.60;;;;;;6130671;23;20013;-74
2021/06/12 00:23:10;;;;;;;8.32;4.20;;;17.70;69.20;;;;;;6130260;23;20028;-74
2021/06/12 00:28:21;;;;;;;9.82;4.60;;;17.70;69.80;;;;;;6156581;23;20052;-73
2021/06/12 00:30:48;;;;;;;9.80;4.28;;;17.60;69.80;;;;;;6130496;23;20001;-73
2021/06/12 00:33:15;;;;;;;9.48;3.92;;;17.60;69.20;;;;;;6154795;23;20025;-73
2021/06/12 00:35:42;;;;;;;9.23;3.92;;;17.60;69.60;;;;;;6156119;23;20028;-74
2021/06/12 00:38:12;;;;;;;10.55;4.07;;;17.60;69.40;;;;;;6155270;23;20085;-74
2021/06/12 00:40:38;;;;;;;9.18;4.28;;;17.50;69.00;;;;;;6130367;23;20018;-73
2021/06/12 00:43:07;;;;;;;10.00;4.07;;;17.40;69.30;;;;;;6156695;23;20089;-74
2021/06/12 00:45:34;;;;;;;7.60;3.55;;;17.40;69.20;;;;;;6155142;23;20005;-73
2021/06/12 00:48:01;;;;;;;8.98;4.03;;;17.30;69.10;;;;;;6130576;23;20037;-74
2021/06/12 00:50:48;;;;;;;10.05;4.80;;;17.30;68.60;;;;;;6155138;23;20020;-74
2021/06/12 00:53:22;;;;;;;14.88;5.20;;;17.20;69.00;;;;;;6156571;23;20343;-74
2021/06/12 00:56:00;;;;;;;11.43;4.30;;;17.10;69.10;;;;;;6154835;23;20010;-73
2021/06/12 00:58:28;;;;;;;8.52;3.85;;;17.20;69.00;;;;;;6154871;23;20017;-73
2021/06/12 01:00:54;;;;;;;9.70;4.20;;;17.30;68.80;;;;;;6154663;23;20040;-73
2021/06/12 01:03:21;;;;;;;;;;;17.30;68.90;;;;;;6156449;23;20085;-73
2021/06/12 01:05:47;;;;;;;8.43;4.15;;;17.40;68.00;;;;;;6154562;23;19912;-73
2021/06/12 01:08:15;;;;;;;;;;;17.40;68.70;;;;;;6157093;23;20049;-73
2021/06/12 01:10:41;;;;;;;14.45;4.18;;;17.40;68.10;;;;;;6130227;23;19955;-74
2021/06/12 01:13:19;;;;;;;;;;;17.40;68.70;;;;;;6156900;23;20323;-74
2021/06/12 01:16:28;;;;;;;11.18;3.97;;;17.40;68.00;;;;;;6155059;23;19916;-74
2021/06/12 01:18:56;;;;;;;8.70;3.50;;;17.40;69.00;;;;;;6130717;23;20096;-74
2021/06/12 01:21:44;;;;;;;11.18;4.10;;;17.50;70.20;;;;;;6129859;23;20010;-73
2021/06/12 01:25:07;;;;;;;9.88;3.65;;;17.60;70.60;;;;;;6154420;23;20010;-74
2021/06/12 01:28:29;;;;;;;10.50;3.67;;;17.70;70.00;;;;;;6156525;23;20044;-73
2021/06/12 01:30:56;;;;;;;9.57;3.80;;;17.70;69.10;;;;;;6156175;23;20037;-74
2021/06/12 01:33:23;;;;;;;20.08;5.72;;;17.60;68.60;;;;;;6153903;23;20443;-74
2021/06/12 01:36:08;;;;;;;19.55;5.45;;;17.60;68.90;;;;;;6153580;23;20391;-73
2021/06/12 01:38:38;;;;;;;45.53;5.85;;;17.60;69.10;;;;;;6154101;23;20114;-74
2021/06/12 01:41:09;;;;;;;26.40;5.63;;;17.70;69.40;;;;;;6130280;23;20062;-73
2021/06/12 01:43:38;;;;;;;11.07;5.05;;;17.60;69.20;;;;;;6153577;23;20064;-73
2021/06/12 01:46:11;;;;;;;12.40;4.53;;;17.60;69.30;;;;;;6154602;23;20013;-73
2021/06/12 01:48:41;;;;;;;29.88;5.32;;;17.60;69.30;;;;;;6154281;23;20085;-73
2021/06/12 01:51:10;;;;;;;20.58;5.00;;;17.60;69.40;;;;;;6154947;23;20383;-73
2021/06/12 01:53:41;;;;;;;57.20;5.80;;;17.50;69.60;;;;;;6153764;23;20100;-73
2021/06/12 01:56:11;;;;;;;24.67;5.85;;;17.50;69.80;;;;;;6154571;23;20010;-73
2021/06/12 01:58:42;;;;;;;20.98;5.65;;;17.50;69.90;;;;;;6154142;23;20101;-74
2021/06/12 02:01:13;;;;;;;9.73;5.00;;;17.40;70.10;;;;;;6154513;23;20016;-73
2021/06/12 02:03:42;;;;;;;15.75;5.50;;;17.40;70.20;;;;;;6129284;23;20101;-73
2021/06/12 02:06:16;;;;;;;15.02;5.15;;;17.30;70.30;;;;;;6129782;23;20013;-73
2021/06/12 02:08:44;;;;;;;11.77;4.43;;;17.30;70.10;;;;;;6130254;23;20013;-73
2021/06/12 02:11:13;;;;;;;11.07;4.03;;;17.20;70.00;;;;;;6154420;23;20029;-73
2021/06/12 02:13:41;;;;;;;31.30;5.75;;;17.30;70.10;;;;;;6128867;23;20021;-73
2021/06/12 02:16:08;;;;;;;35.50;6.20;;;17.20;69.90;;;;;;6154354;23;20079;-73
2021/06/12 02:18:36;;;;;;;37.65;5.90;;;17.20;69.80;;;;;;6153983;23;20036;-74
2021/06/12 02:21:03;;;;;;;17.42;5.38;;;17.20;70.00;;;;;;6154226;23;20006;-73
2021/06/12 02:23:31;;;;;;;36.88;6.25;;;17.10;70.30;;;;;;6153545;23;20447;-73
2021/06/12 02:25:58;;;;;;;12.60;5.28;;;17.10;70.00;;;;;;6154198;23;20089;-74
2021/06/12 02:28:34;;;;;;;9.73;4.80;;;17.10;70.50;;;;;;6128251;23;20014;-73
2021/06/12 02:31:40;;;;;;;15.48;5.70;;;17.00;70.50;;;;;;6154040;23;20064;-73
2021/06/12 02:34:07;;;;;;;30.88;5.72;;;17.10;70.50;;;;;;6128812;23;20025;-73
2021/06/12 02:36:34;;;;;;;27.27;4.88;;;16.90;70.50;;;;;;6155479;23;20321;-73
2021/06/12 02:39:00;;;;;;;21.35;4.88;;;16.80;70.60;;;;;;6158473;23;20394;-73
2021/06/12 02:41:26;;;;;;;;;;;16.70;70.70;;;;;;6159571;23;20017;-73
2021/06/12 02:43:53;;;;;;;31.50;4.60;;;16.60;70.50;;;;;;6158614;23;19955;-73
2021/06/12 02:46:24;;;;;;;26.73;4.72;;;16.50;70.80;;;;;;6185300;23;20437;-74
2021/06/12 02:48:59;;;;;;;21.65;4.75;;;16.50;70.60;;;;;;6133872;23;20009;-74
2021/06/12 02:51:28;;;;;;;9.35;4.90;;;16.40;70.60;;;;;;6185309;23;20024;-73
2021/06/12 02:53:57;;;;;;;12.73;5.05;;;16.40;70.50;;;;;;6158189;23;20009;-74
2021/06/12 02:56:25;;;;;;;16.27;5.88;;;16.40;70.50;;;;;;6158787;23;20068;-74
2021/06/12 02:58:57;;;;;;;14.35;4.95;;;16.40;70.70;;;;;;6185075;23;20037;-73
2021/06/12 03:01:25;;;;;;;9.80;4.43;;;16.40;70.70;;;;;;6134306;23;20520;-73
2021/06/12 03:03:53;;;;;;;14.27;4.85;;;16.30;70.80;;;;;;6184613;23;20012;-73
2021/06/12 03:06:23;;;;;;;9.57;4.47;;;16.30;70.90;;;;;;6134123;23;20346;-73
2021/06/12 03:08:52;;;;;;;10.27;4.10;;;16.30;71.00;;;;;;6158536;23;20013;-73
2021/06/12 03:11:20;;;;;;;10.45;3.97;;;16.30;70.80;;;;;;6134083;23;20052;-73
2021/06/12 03:13:49;;;;;;;7.30;3.42;;;16.30;70.80;;;;;;6133342;23;20013;-73
2021/06/12 03:16:17;;;;;;;7.80;3.70;;;16.30;70.60;;;;;;6134241;23;20382;-73
2021/06/12 03:18:46;;;;;;;7.63;3.90;;;16.20;70.10;;;;;;6158531;23;20446;-73
2021/06/12 03:21:15;;;;;;;34.78;4.18;;;16.00;70.00;;;;;;6159214;23;20312;-73
2021/06/12 03:23:41;;;;;;;10.52;4.70;;;15.90;69.70;;;;;;6158179;23;20009;-74
2021/06/12 03:26:11;;;;;;;8.65;4.32;;;15.80;70.00;;;;;;6185237;23;20009;-74
2021/06/12 03:28:38;;;;;;;9.93;4.22;;;15.80;70.40;;;;;;6157742;23;20079;-73
2021/06/12 03:31:06;;;;;;;7.47;3.55;;;15.80;70.40;;;;;;6134104;23;20438;-73
2021/06/12 03:33:32;;;;;;;10.60;4.82;;;15.80;70.40;;;;;;6158073;23;20021;-73
2021/06/12 03:36:00;;;;;;;7.97;3.95;;;15.80;70.00;;;;;;6158700;23;20388;-74
2021/06/12 03:38:28;;;;;;;9.48;4.15;;;15.90;70.70;;;;;;6158365;23;20009;-73
2021/06/12 03:40:55;;;;;;;8.75;3.95;;;16.00;70.60;;;;;;6158213;23;20446;-73
2021/06/12 03:43:24;;;;;;;9.52;4.00;;;16.00;70.60;;;;;;6157765;23;20009;-73
2021/06/12 03:45:56;;;;;;;9.07;3.97;;;16.00;70.40;;;;;;6134268;23;20017;-73
2021/06/12 03:48:23;;;;;;;10.70;3.95;;;16.10;70.10;;;;;;6159094;23;20040;-73
2021/06/12 03:51:06;;;;;;;6.72;3.55;;;16.10;70.00;;;;;;6133809;23;20088;-73
2021/06/12 03:53:43;;;;;;;7.38;4.07;;;16.10;69.80;;;;;;6158934;23;20021;-73
2021/06/12 03:56:11;;;;;;;;;;;16.10;69.70;;;;;;6161439;23;20005;-73
2021/06/12 03:58:39;;;;;;;9.88;3.72;;;16.10;69.30;;;;;;6133376;23;19920;-73
2021/06/12 04:01:05;;;;;;;10.98;3.90;;;16.20;69.40;;;;;;6158744;23;20009;-73
2021/06/12 04:03:40;;;;;;;9.27;4.32;;;16.30;68.80;;;;;;6184221;23;20036;-73
2021/06/12 04:06:08;;;;;;;11.50;4.53;;;16.40;69.40;;;;;;6184220;23;20020;-73
2021/06/12 04:08:34;;;;;;;18.45;4.93;;;16.40;69.30;;;;;;6160160;23;20013;-73
2021/06/12 04:11:00;;;;;;;;;;;16.50;69.70;;;;;;6161061;23;20063;-74
2021/06/12 04:13:26;;;;;;;56.50;5.28;;;16.50;69.20;;;;;;6159773;23;19916;-73
2021/06/12 04:15:53;;;;;;;;;;;16.50;69.70;;;;;;6160989;23;20009;-73
2021/06/12 04:18:20;;;;;;;69.40;6.03;;;16.60;69.30;;;;;;6186270;23;20249;-73
2021/06/12 04:20:49;;;;;;;56.42;5.82;;;16.50;70.40;;;;;;6135619;23;20005;-73
2021/06/12 04:23:16;;;;;;;37.40;5.00;;;16.60;70.90;;;;;;6159220;23;20100;-73
2021/06/12 04:25:42;;;;;;;77.90;5.80;;;16.70;71.00;;;;;;6160318;23;20009;-73
2021/06/12 04:28:09;;;;;;;71.55;6.28;;;16.70;70.90;;;;;;6159711;23;20012;-73
2021/06/12 04:30:35;;;;;;;82.72;5.78;;;16.80;71.30;;;;;;6160157;23;20013;-73
2021/06/12 04:33:03;;;;;;;79.47;5.65;;;16.80;71.30;;;;;;6159590;23;20017;-73
2021/06/12 04:35:32;;;;;;;48.88;4.80;;;16.90;71.70;;;;;;6186462;23;20060;-73
2021/06/12 04:37:59;;;;;;;23.38;3.60;;;16.90;71.90;;;;;;6160464;23;20063;-72
2021/06/12 04:40:47;;;;;;;59.63;4.60;;;16.90;71.80;;;;;;6159640;23;20028;-73
2021/06/12 04:43:13;;;;;;;26.52;4.00;;;17.00;71.70;;;;;;6186453;23;20047;-73
2021/06/12 04:45:41;;;;;;;13.02;3.20;;;17.10;71.60;;;;;;6160117;23;20454;-74
2021/06/12 04:48:08;;;;;;;14.00;3.35;;;17.10;71.10;;;;;;6135276;23;20371;-74
2021/06/12 04:50:37;;;;;;;21.63;3.45;;;17.20;71.00;;;;;;6135300;23;20021;-73
2021/06/12 04:53:23;;;;;;;26.65;4.45;;;17.30;71.20;;;;;;6159483;23;20009;-73
2021/06/12 04:55:49;;;;;;;8.90;3.90;;;17.40;71.20;;;;;;6160033;23;20013;-73
2021/06/12 04:58:15;;;;;;;;;;;17.40;71.20;;;;;;6160432;23;20036;-72
2021/06/12 05:00:42;;;;;;;9.27;3.92;;;17.50;70.10;;;;;;6135154;23;19908;-73
2021/06/12 05:03:08;;;;;;;11.27;4.82;;;17.60;70.80;;;;;;6159266;23;20005;-73
2021/06/12 05:05:34;;;;;;;;;;;17.60;71.00;;;;;;6186690;23;20023;-73
2021/06/12 05:08:00;;;;;;;6.93;3.83;;;17.70;70.60;;;;;;6160196;23;19908;-73
2021/06/12 05:10:26;;;;;;;;;;;17.70;70.70;;;;;;6186470;23;20071;-73
2021/06/12 05:12:53;;;;;;;26.23;4.28;;;17.80;69.80;;;;;;6135150;23;20309;-73
2021/06/12 05:15:26;;;;;;;9.80;3.70;;;17.90;70.80;;;;;;6134509;23;20013;-73
2021/06/12 05:17:54;;;;;;;13.52;3.70;;;17.90;70.50;;;;;;6160730;23;20351;-73
2021/06/12 05:20:21;;;;;;;8.35;3.70;;;18.00;71.00;;;;;;6159382;23;20049;-73
2021/06/12 05:22:50;;;;;;;6.18;3.00;;;18.10;70.30;;;;;;6184967;23;20017;-73
2021/06/12 05:25:16;;;;;;;6.22;3.45;;;18.10;70.90;;;;;;6159093;23;20023;-73
2021/06/12 05:27:43;;;;;;;7.07;4.18;;;18.20;70.80;;;;;;6135169;23;20017;-73
2021/06/12 05:30:10;;;;;;;6.38;3.58;;;18.30;70.70;;;;;;6134346;23;20083;-73
2021/06/12 05:32:36;;;;;;;9.27;3.25;;;18.40;70.60;;;;;;6185894;23;20005;-73
2021/06/12 05:35:03;;;;;;;;;;;18.50;71.20;;;;;;6135058;23;20071;-73
2021/06/12 05:37:29;;;;;;;6.03;3.30;;;18.50;69.70;;;;;;6159694;23;20285;-73
2021/06/12 05:39:55;;;;;;;;;;;18.60;69.70;;;;;;6159699;23;20017;-73
2021/06/12 05:42:21;;;;;;;6.72;3.55;;;18.60;69.60;;;;;;6159742;23;19912;-73
2021/06/12 05:44:47;;;;;;;;;;;18.60;69.70;;;;;;6185908;23;20087;-73
2021/06/12 05:47:14;;;;;;;11.85;3.67;;;18.60;69.40;;;;;;6186038;23;19918;-73
2021/06/12 05:49:40;;;;;;;10.60;3.92;;;18.70;69.50;;;;;;6185557;23;20012;-73
2021/06/12 05:52:06;;;;;;;;;;;18.80;69.70;;;;;;6159073;23;20385;-73
2021/06/12 05:54:32;;;;;;;7.00;3.97;;;18.80;68.80;;;;;;6185053;23;19958;-73
2021/06/12 05:56:58;;;;;;;7.28;3.95;;;18.80;69.30;;;;;;6159190;23;20005;-73
2021/06/12 05:59:25;;;;;;;;;;;18.80;69.40;;;;;;6135227;23;20036;-73
2021/06/12 06:01:53;;;;;;;6.75;3.90;;;18.90;68.40;;;;;;6159388;23;19912;-73
2021/06/12 06:04:19;;;;;;;7.10;4.05;;;18.90;68.90;;;;;;6158539;23;20040;-73
2021/06/12 06:06:46;;;;;;;;;;;19.00;69.10;;;;;;6160008;23;20047;-73
2021/06/12 06:09:13;;;;;;;8.73;4.60;;;19.00;69.60;;;;;;6159287;23;19912;-73
2021/06/12 06:11:39;;;;;;;7.65;4.40;;;19.10;68.40;;;;;;6159208;23;20020;-73
2021/06/12 06:14:06;;;;;;;6.93;4.28;;;19.10;69.30;;;;;;6184882;23;20017;-73
2021/06/12 06:16:32;;;;;;;;;;;19.20;69.50;;;;;;6159637;23;20088;-73
2021/06/12 06:18:58;;;;;;;8.02;4.18;;;19.20;68.90;;;;;;6159161;23;20352;-73
2021/06/12 06:21:24;;;;;;;;;;;19.30;69.30;;;;;;6186170;23;20032;-73
2021/06/12 06:23:52;;;;;;;8.80;4.22;;;19.40;68.90;;;;;;6184853;23;19914;-73
2021/06/12 06:26:23;;;;;;;6.65;4.07;;;19.40;69.00;;;;;;6158765;23;20020;-73
2021/06/12 06:28:49;;;;;;;9.32;4.45;;;19.50;69.20;;;;;;6159038;23;20013;-73
2021/06/12 06:31:16;;;;;;;7.70;4.32;;;19.60;68.50;;;;;;6185223;23;20398;-73
2021/06/12 06:33:42;;;;;;;8.25;4.03;;;19.70;69.10;;;;;;6158470;23;20040;-73
2021/06/12 06:36:08;;;;;;;6.45;4.10;;;19.80;68.80;;;;;;6159174;23;20296;-73
2021/06/12 06:38:37;;;;;;;10.88;4.05;;;19.90;68.30;;;;;;6184733;23;20054;-73
2021/06/12 06:41:03;;;;;;;8.98;4.30;;;19.90;68.90;;;;;;6158833;23;20012;-73
2021/06/12 06:43:29;;;;;;;6.53;4.05;;;20.00;68.60;;;;;;6158347;23;20013;-73
2021/06/12 06:45:56;;;;;;;6.88;3.83;;;20.10;68.00;;;;;;6185582;23;20009;-73
2021/06/12 06:48:22;;;;;;;;;;;20.20;68.20;;;;;;6185543;23;20020;-73
2021/06/12 06:50:48;;;;;;;10.88;4.15;;;20.30;67.10;;;;;;6185263;23;19932;-73
2021/06/12 06:53:15;;;;;;;7.32;3.72;;;20.40;67.90;;;;;;6158993;23;20043;-73
2021/06/12 06:55:42;;;;;;;17.35;3.80;;;20.40;66.90;;;;;;6159156;23;20087;-74
2021/06/12 06:58:08;;;;;;;11.57;4.20;;;20.50;66.80;;;;;;6185696;23;20009;-73
2021/06/12 07:00:35;;;;;;;8.43;3.63;;;20.70;67.20;;;;;;6185401;23;20084;-73
2021/06/12 07:03:01;;;;;;;5.68;3.25;;;20.80;67.10;;;;;;6185703;23;20040;-73
2021/06/12 07:05:28;;;;;;;7.50;4.00;;;21.00;66.60;;;;;;6185042;23;20024;-73
2021/06/12 07:07:54;;;;;;;6.00;3.38;;;21.10;66.20;;;;;;6159122;23;20086;-73
2021/06/12 07:10:21;;;;;;;6.95;4.40;;;21.30;65.90;;;;;;6185116;23;20196;-73
2021/06/12 07:12:48;;;;;;;5.50;3.10;;;21.50;64.60;;;;;;6158855;23;20017;-74
2021/06/12 07:15:15;;;;;;;6.45;3.20;;;21.70;64.90;;;;;;6158807;23;20052;-73
2021/06/12 07:17:41;;;;;;;5.00;2.65;;;21.80;64.60;;;;;;6158817;23;20016;-73
2021/06/12 07:20:11;;;;;;;5.65;3.17;;;22.00;64.00;;;;;;6185108;23;20024;-73
2021/06/12 07:22:38;;;;;;;5.60;2.75;;;22.10;63.90;;;;;;6185373;23;20013;-73
2021/06/12 07:25:05;;;;;;;5.00;2.60;;;22.20;63.00;;;;;;6158734;23;20013;-73
2021/06/12 07:27:34;;;;;;;6.28;2.85;;;22.30;62.70;;;;;;6185277;23;20061;-73
2021/06/12 07:30:02;;;;;;;5.90;3.00;;;22.40;62.40;;;;;;6185036;23;20090;-73
2021/06/12 07:32:29;;;;;;;8.63;3.05;;;22.50;62.10;;;;;;6134157;23;20446;-73
2021/06/12 07:34:56;;;;;;;5.70;2.65;;;22.60;61.00;;;;;;6158769;23;20017;-73
2021/06/12 07:37:22;;;;;;;7.20;2.75;;;22.70;60.30;;;;;;6158520;23;20374;-73
2021/06/12 07:39:48;;;;;;;5.60;2.33;;;22.80;60.30;;;;;;6158170;23;20017;-73
2021/06/12 07:42:15;;;;;;;8.85;2.42;;;22.80;58.40;;;;;;6159901;23;20019;-73
2021/06/12 07:44:44;;;;;;;10.75;2.78;;;22.90;58.10;;;;;;6160626;23;20020;-73
2021/06/12 07:47:11;;;;;;;6.10;2.30;;;23.00;58.50;;;;;;6160769;23;20013;-74
2021/06/12 07:49:37;;;;;;;4.55;2.13;;;23.10;57.70;;;;;;6160596;23;20024;-73
2021/06/12 07:52:04;;;;;;;5.47;2.63;;;23.20;57.50;;;;;;6160714;23;20378;-73
2021/06/12 07:54:30;;;;;;;7.22;2.85;;;23.30;56.60;;;;;;6160426;23;20017;-73
2021/06/12 07:56:57;;;;;;;6.63;2.33;;;23.30;56.90;;;;;;6159863;23;20036;-73
2021/06/12 07:59:24;;;;;;;5.53;2.42;;;23.40;56.20;;;;;;6186444;23;20310;-73
2021/06/12 08:01:50;;;;;;;5.70;2.60;;;23.40;56.30;;;;;;6160586;23;20252;-73
2021/06/12 08:04:19;;;;;;;5.55;2.53;;;23.50;56.20;;;;;;6160470;23;20016;-73
2021/06/12 08:06:46;;;;;;;5.38;2.30;;;23.70;56.00;;;;;;6186699;23;20013;-74
2021/06/12 08:09:12;;;;;;;5.85;2.75;;;23.70;55.30;;;;;;6160333;23;20013;-73
2021/06/12 08:11:38;;;;;;;5.22;2.63;;;23.90;55.40;;;;;;6160294;23;20016;-72
2021/06/12 08:14:04;;;;;;;5.15;2.60;;;23.90;54.90;;;;;;6160054;23;20093;-74
2021/06/12 08:16:31;;;;;;;9.35;2.80;;;24.00;54.80;;;;;;6186537;23;20009;-73
2021/06/12 08:18:57;;;;;;;6.45;2.13;;;24.20;55.30;;;;;;6160304;23;20342;-74
2021/06/12 08:21:24;;;;;;;4.65;2.42;;;24.30;54.30;;;;;;6186653;23;20013;-73
2021/06/12 08:23:52;;;;;;;4.95;2.53;;;24.40;54.50;;;;;;6135509;23;20477;-73
2021/06/12 08:26:22;;;;;;;5.07;2.60;;;24.50;54.50;;;;;;6186733;23;20017;-73
2021/06/12 08:28:50;;;;;;;10.00;2.67;;;24.70;54.20;;;;;;6186513;23;20018;-73
2021/06/12 08:31:17;;;;;;;5.07;2.63;;;24.80;53.30;;;;;;6136006;23;20024;-73
2021/06/12 08:33:47;;;;;;;4.93;2.30;;;24.80;53.00;;;;;;6160300;23;20346;-74
2021/06/12 08:36:14;;;;;;;8.27;2.83;;;24.90;53.20;;;;;;6160304;23;20036;-73
2021/06/12 08:38:56;;;;;;;5.63;2.42;;;25.10;52.60;;;;;;6135203;23;20060;-74
2021/06/12 08:41:22;;;;;;;4.22;2.15;;;25.20;52.20;;;;;;6186588;23;20009;-73
2021/06/12 08:43:51;;;;;;;4.32;2.15;;;25.30;50.20;;;;;;6160150;23;20013;-73
2021/06/12 08:46:18;;;;;;;6.07;2.40;;;25.40;50.30;;;;;;6160083;23;20048;-73
2021/06/12 08:48:44;;;;;;;10.90;2.28;;;25.30;49.00;;;;;;6135240;23;20434;-73
2021/06/12 08:51:11;;;;;;;5.30;2.38;;;25.40;49.20;;;;;;6160118;23;20442;-73
2021/06/12 08:53:37;;;;;;;8.30;2.28;;;25.50;48.70;;;;;;6159763;23;20096;-73
2021/06/12 08:56:04;;;;;;;5.97;2.53;;;25.70;48.10;;;;;;6186265;23;20005;-73
2021/06/12 08:58:31;;;;;;;7.18;2.33;;;25.70;47.30;;;;;;6159864;23;20016;-74
2021/06/12 09:00:58;;;;;;;4.72;2.40;;;25.80;46.90;;;;;;6186213;23;20013;-73
2021/06/12 09:03:29;;;;;;;4.68;2.40;;;25.90;45.50;;;;;;6186078;23;20016;-73
2021/06/12 09:05:59;;;;;;;5.30;2.35;;;25.90;44.50;;;;;;6135674;23;20013;-74
2021/06/12 09:08:31;;;;;;;4.90;2.50;;;26.00;46.40;;;;;;6159683;23;20037;-73
2021/06/12 09:11:03;;;;;;;4.63;2.10;;;26.00;45.10;;;;;;6159893;23;20009;-73
2021/06/12 09:13:49;;;;;;;4.50;2.20;;;26.10;44.90;;;;;;6185922;23;20457;-73
2021/06/12 09:16:36;;;;;;;5.57;2.45;;;26.10;44.80;;;;;;6186230;23;20013;-73
2021/06/12 09:19:21;;;;;;;5.03;2.00;;;26.20;43.90;;;;;;6159870;23;20088;-73
2021/06/12 09:22:10;;;;;;;8.82;2.53;;;26.20;43.60;;;;;;6135129;23;20067;-73
2021/06/12 09:24:57;;;;;;;3.95;1.65;;;26.40;43.60;;;;;;6186463;23;20010;-73
2021/06/12 09:27:23;;;;;;;11.45;2.63;;;26.60;43.30;;;;;;6185867;23;20013;-73
2021/06/12 09:29:54;;;;;;;3.90;1.80;;;26.80;42.60;;;;;;6186043;23;20457;-73
2021/06/12 09:32:28;;;;;;;7.90;2.22;;;27.00;42.30;;;;;;6159774;23;20044;-74
2021/06/12 09:35:17;;;;;;;3.55;1.70;;;27.30;40.00;;;;;;6159699;23;20013;-73
2021/06/12 09:37:45;;;;;;;7.88;2.05;;;27.50;38.90;;;;;;6186366;23;20378;-72
2021/06/12 09:40:23;;;;;;;7.93;2.30;;;28.00;38.80;;;;;;6185480;23;20024;-73
2021/06/12 09:43:01;;;;;;;9.70;2.03;;;28.70;37.10;;;;;;6186165;23;20299;-73
2021/06/12 09:45:34;;;;;;;6.25;2.20;;;29.40;37.40;;;;;;6136054;23;20583;-73
2021/06/12 09:48:11;;;;;;;4.32;2.10;;;30.20;36.40;;;;;;6159911;23;20032;-73
2021/06/12 09:50:40;;;;;;;5.93;1.98;;;30.70;35.10;;;;;;6134746;23;20386;-73
2021/06/12 09:53:37;;;;;;;6.72;2.13;;;31.50;34.10;;;;;;6134920;23;20016;-73
2021/06/12 09:56:25;;;;;;;10.63;2.10;;;32.40;33.10;;;;;;6185796;23;20023;-73
2021/06/12 09:58:53;;;;;;;;;;;33.30;32.20;;;;;;6135701;23;20104;-73
2021/06/12 10:01:22;;;;;;;14.75;2.22;;;33.60;31.10;;;;;;6159411;23;19983;-73
2021/06/12 10:03:50;;;;;;;11.18;3.28;;;33.90;29.80;;;;;;6185254;23;20040;-74
2021/06/12 10:06:36;;;;;;;4.32;2.22;;;34.60;29.30;;;;;;6134678;23;20446;-74
2021/06/12 10:09:07;;;;;;;4.40;2.30;;;35.30;29.00;;;;;;6185684;23;20009;-74
2021/06/12 10:11:35;;;;;;;4.03;2.13;;;35.70;27.80;;;;;;6185486;23;20012;-74
2021/06/12 10:14:03;;;;;;;5.22;2.45;;;36.40;26.70;;;;;;6159155;23;20374;-74
2021/06/12 10:16:36;;;;;;;4.32;2.20;;;36.90;25.70;;;;;;6159226;23;20016;-73
2021/06/12 10:19:06;;;;;;;9.20;2.67;;;37.60;25.50;;;;;;6159095;23;20028;-74
2021/06/12 10:21:34;;;;;;;4.68;2.38;;;37.80;24.50;;;;;;6185571;23;20019;-74
2021/06/12 10:24:06;;;;;;;3.92;2.42;;;38.40;24.30;;;;;;6134441;23;20453;-75
2021/06/12 10:26:33;;;;;;;4.30;2.40;;;39.10;24.30;;;;;;6159221;23;20032;-74
2021/06/12 10:29:01;;;;;;;5.30;2.70;;;39.70;23.10;;;;;;6159210;23;20017;-74
2021/06/12 10:31:33;;;;;;;4.30;2.40;;;40.20;22.40;;;;;;6159427;23;20334;-74
2021/06/12 10:34:00;;;;;;;4.95;2.33;;;40.60;21.50;;;;;;6185350;23;20099;-74
2021/06/12 10:36:31;;;;;;;4.60;2.50;;;41.20;22.00;;;;;;6158859;23;20016;-73
2021/06/12 10:38:58;;;;;;;4.57;2.42;;;41.70;21.30;;;;;;6158813;23;20020;-74
2021/06/12 10:41:28;;;;;;;5.20;2.55;;;42.30;21.10;;;;;;6185347;23;20044;-74
2021/06/12 10:43:59;;;;;;;8.35;2.63;;;42.60;20.40;;;;;;6185331;23;20013;-74
2021/06/12 10:46:45;;;;;;;5.68;2.60;;;43.20;20.10;;;;;;6159223;23;20009;-74
2021/06/12 10:49:28;;;;;;;4.75;2.45;;;43.70;20.10;;;;;;6185332;23;20009;-75
2021/06/12 10:51:55;;;;;;;3.92;2.30;;;44.40;19.90;;;;;;6158975;23;20017;-74
2021/06/12 10:54:25;;;;;;;4.25;2.42;;;44.90;18.40;;;;;;6185116;23;20013;-75
2021/06/12 10:57:37;;;;;;;5.03;2.65;;;45.30;18.60;;;;;;6159368;23;20044;-74
2021/06/12 11:00:07;;;;;;;7.03;3.28;;;45.80;18.80;;;;;;6158920;23;20013;-74
2021/06/12 11:02:54;;;;;;;6.82;2.80;;;46.40;18.10;;;;;;6159235;23;20020;-73
2021/06/12 11:05:39;;;;;;;5.43;3.00;;;46.50;17.40;;;;;;6185108;23;20009;-74
2021/06/12 11:08:16;;;;;;;7.68;3.28;;;47.00;17.60;;;;;;6185607;23;20075;-73
2021/06/12 11:10:42;;;;;;;5.40;3.03;;;47.60;17.20;;;;;;6158778;23;20021;-73
2021/06/12 11:13:22;;;;;;;5.40;2.75;;;47.80;16.90;;;;;;6185458;23;20013;-74
2021/06/12 11:15:48;;;;;;;7.93;3.20;;;47.40;16.60;;;;;;6185085;23;20013;-74
2021/06/12 11:18:33;;;;;;;4.00;2.50;;;47.60;16.40;;;;;;6159018;23;20020;-73
2021/06/12 11:20:59;;;;;;;6.70;3.17;;;47.50;16.50;;;;;;6185050;23;20013;-73
2021/06/12 11:24:02;;;;;;;6.05;3.10;;;47.40;16.20;;;;;;6184637;23;20092;-73
2021/06/12 11:27:06;;;;;;;4.25;2.60;;;47.40;16.30;;;;;;6157397;23;20088;-73
2021/06/12 11:29:33;;;;;;;5.75;3.05;;;46.70;15.90;;;;;;6158586;23;20020;-74
2021/06/12 11:32:38;;;;;;;5.03;3.20;;;46.40;15.70;;;;;;6134016;23;20438;-73
2021/06/12 11:35:05;;;;;;;5.95;3.17;;;46.60;16.60;;;;;;6158792;23;20013;-73
2021/06/12 11:37:32;;;;;;;5.80;3.10;;;47.00;15.70;;;;;;6158579;23;20435;-73
2021/06/12 11:40:22;;;;;;;5.15;3.10;;;47.40;15.90;;;;;;6153545;23;20024;-73
2021/06/12 11:42:49;;;;;;;5.28;3.17;;;47.60;15.90;;;;;;6154023;23;20048;-73
2021/06/12 11:45:37;;;;;;;4.57;2.80;;;48.00;15.40;;;;;;6153767;23;20097;-73
2021/06/12 11:48:23;;;;;;;5.28;3.40;;;48.20;15.60;;;;;;6155691;23;20014;-74
2021/06/12 11:50:52;;;;;;;5.95;3.08;;;48.00;15.60;;;;;;6155268;23;20018;-73
2021/06/12 11:53:37;;;;;;;6.45;3.05;;;48.20;15.30;;;;;;6152529;23;20025;-74
2021/06/12 11:56:04;;;;;;;5.80;3.15;;;48.20;15.30;;;;;;6153740;23;20009;-73
2021/06/12 11:58:30;;;;;;;5.32;3.10;;;48.30;15.50;;;;;;6129005;23;20065;-73
2021/06/12 12:00:57;;;;;;;4.40;2.78;;;48.00;15.40;;;;;;6153441;23;20096;-73
2021/06/12 12:03:23;;;;;;;5.93;3.00;;;47.50;14.20;;;;;;6128963;23;20009;-73
2021/06/12 12:06:12;;;;;;;5.28;2.90;;;47.00;15.20;;;;;;6154140;23;20462;-73
2021/06/12 12:08:44;;;;;;;4.18;2.80;;;47.10;15.60;;;;;;6153341;23;20037;-74
2021/06/12 12:11:10;;;;;;;4.40;3.03;;;46.80;15.50;;;;;;6153729;23;20021;-74
2021/06/12 12:13:39;;;;;;;4.95;3.35;;;46.80;15.90;;;;;;6154910;23;20021;-73
2021/06/12 12:16:26;;;;;;;4.07;2.67;;;46.70;15.10;;;;;;6155219;23;20005;-73
2021/06/12 12:18:57;;;;;;;4.70;3.10;;;46.50;14.80;;;;;;6153890;23;20024;-73
2021/06/12 12:21:42;;;;;;;4.90;3.13;;;46.50;15.70;;;;;;6153590;23;20077;-73
2021/06/12 12:24:35;;;;;;;4.10;3.00;;;46.60;15.70;;;;;;6153589;23;20018;-73
2021/06/12 12:27:09;;;;;;;4.32;3.00;;;46.90;15.50;;;;;;6153850;23;20079;-73
2021/06/12 12:32:40;;;;;;;4.60;3.10;;;46.60;15.70;;;;;;6155204;23;20024;-73
2021/06/12 12:35:17;;;;;;;9.38;3.10;;;46.20;16.10;;;;;;6155366;23;20044;-73
2021/06/12 12:37:44;;;;;;;4.35;2.88;;;46.00;16.30;;;;;;6130673;23;20072;-73
2021/06/12 12:40:34;;;;;;;5.15;2.85;;;45.80;15.60;;;;;;6129674;23;20034;-73
2021/06/12 12:43:20;;;;;;;7.47;2.78;;;45.40;16.70;;;;;;6130884;23;20018;-73
2021/06/12 12:45:54;;;;;;;7.53;3.05;;;44.50;17.40;;;;;;6155255;23;20017;-73
2021/06/12 12:48:20;;;;;;;7.38;3.00;;;43.70;18.20;;;;;;6154884;23;20072;-74
2021/06/12 12:50:49;;;;;;;9.32;3.17;;;42.80;17.80;;;;;;6155152;23;20084;-73
2021/06/12 12:53:20;;;;;;;5.07;2.63;;;41.80;19.20;;;;;;6156495;23;20018;-73
2021/06/12 12:56:08;;;;;;;5.43;2.95;;;40.80;19.60;;;;;;6154657;23;20016;-72
2021/06/12 12:58:36;;;;;;;8.25;3.25;;;39.80;20.00;;;;;;6154994;23;20014;-73
2021/06/12 13:01:21;;;;;;;6.93;3.60;;;39.10;21.40;;;;;;6129894;23;20347;-73
2021/06/12 13:03:55;;;;;;;9.85;3.08;;;38.80;21.60;;;;;;6154965;23;20070;-72
2021/06/12 13:06:40;;;;;;;10.80;3.25;;;38.30;22.80;;;;;;6156410;23;20010;-73
2021/06/12 13:09:25;;;;;;;7.53;2.88;;;38.10;23.50;;;;;;6156152;23;20017;-72
2021/06/12 13:11:55;;;;;;;8.80;4.67;;;38.20;22.80;;;;;;6154491;23;20088;-72
2021/06/12 13:14:43;;;;;;;8.23;3.30;;;38.40;23.10;;;;;;6154182;23;20048;-72
2021/06/12 13:17:29;;;;;;;8.18;2.80;;;38.20;23.30;;;;;;6154379;23;20026;-72